Aspen Hill, Maryland
Current Conditions -  °F | °C
As of 7:15 PM on Friday 24 Oct 2014 (Local Time) from KGAI Reporting Station
Clear Clear  
Wind Chill: 57°   Ceiling: Unl
Heat Index: 57°   Visibility: 10mi
Dew Point: 34°   Wind: 7mph
Humidity: 41%   Direction: 290°WNW
Pressure: 29.97"   Gusts: NA
Location:  39.08°N, 77.09°W
Report Text: KGAI 242315Z 29006KT 10SM CLR 14/01 A2997 RMK AO1
Loading
Personal Weather Stations






























Interactive Weather Map
Tropical Storm Tracking
New forecast layout! Learn more

10-Day Weather Forecast

Advertisements
Track Severe Weather on mobile